sensor_id;sensor_type;location;lat;lon;timestamp;pressure;altitude;pressure_sealevel;temperature;humidity
68380;BME280;57711;53.196;19.638;2023-03-25T00:00:14;98893.29;;;10.21;68.48
68380;BME280;57711;53.196;19.638;2023-03-25T00:03:02;98889.46;;;10.18;68.63
68380;BME280;57711;53.196;19.638;2023-03-25T00:05:30;98891.70;;;10.14;68.37
68380;BME280;57711;53.196;19.638;2023-03-25T00:07:57;98898.50;;;10.10;68.44
68380;BME280;57711;53.196;19.638;2023-03-25T00:10:24;98905.47;;;10.07;68.63
68380;BME280;57711;53.196;19.638;2023-03-25T00:12:52;98902.52;;;10.03;68.57
68380;BME280;57711;53.196;19.638;2023-03-25T00:15:19;98899.12;;;9.97;68.41
68380;BME280;57711;53.196;19.638;2023-03-25T00:17:48;98900.91;;;9.94;68.52
68380;BME280;57711;53.196;19.638;2023-03-25T00:20:15;98905.27;;;9.94;68.43
68380;BME280;57711;53.196;19.638;2023-03-25T00:22:42;98902.70;;;9.92;68.48
68380;BME280;57711;53.196;19.638;2023-03-25T00:25:14;98899.19;;;9.90;68.44
68380;BME280;57711;53.196;19.638;2023-03-25T00:27:46;98897.98;;;9.88;68.34
68380;BME280;57711;53.196;19.638;2023-03-25T00:30:15;98899.20;;;9.87;68.57
68380;BME280;57711;53.196;19.638;2023-03-25T00:32:43;98895.10;;;9.85;68.45
68380;BME280;57711;53.196;19.638;2023-03-25T00:35:19;98899.91;;;9.82;68.52
68380;BME280;57711;53.196;19.638;2023-03-25T00:37:47;98898.20;;;9.79;68.53
68380;BME280;57711;53.196;19.638;2023-03-25T00:40:18;98898.75;;;9.77;68.45
68380;BME280;57711;53.196;19.638;2023-03-25T00:42:45;98902.02;;;9.75;68.51
68380;BME280;57711;53.196;19.638;2023-03-25T00:45:16;98903.02;;;9.71;68.69
68380;BME280;57711;53.196;19.638;2023-03-25T00:47:43;98898.63;;;9.69;68.49
68380;BME280;57711;53.196;19.638;2023-03-25T00:50:11;98893.84;;;9.66;68.39
68380;BME280;57711;53.196;19.638;2023-03-25T00:52:38;98895.67;;;9.64;68.51
68380;BME280;57711;53.196;19.638;2023-03-25T00:55:06;98897.25;;;9.62;68.56
68380;BME280;57711;53.196;19.638;2023-03-25T00:57:33;98903.81;;;9.60;68.35
68380;BME280;57711;53.196;19.638;2023-03-25T01:00:07;98905.22;;;9.59;68.38
68380;BME280;57711;53.196;19.638;2023-03-25T01:02:36;98897.51;;;9.57;68.48
68380;BME280;57711;53.196;19.638;2023-03-25T01:05:06;98897.10;;;9.56;68.58
68380;BME280;57711;53.196;19.638;2023-03-25T01:07:36;98895.39;;;9.53;68.58
68380;BME280;57711;53.196;19.638;2023-03-25T01:10:05;98896.23;;;9.51;68.52
68380;BME280;57711;53.196;19.638;2023-03-25T01:12:32;98898.08;;;9.47;68.49
68380;BME280;57711;53.196;19.638;2023-03-25T01:15:00;98896.54;;;9.42;68.37
68380;BME280;57711;53.196;19.638;2023-03-25T01:17:27;98898.73;;;9.40;68.58
68380;BME280;57711;53.196;19.638;2023-03-25T01:19:54;98894.95;;;9.38;68.64
68380;BME280;57711;53.196;19.638;2023-03-25T01:22:22;98895.69;;;9.38;68.51
68380;BME280;57711;53.196;19.638;2023-03-25T01:24:49;98895.04;;;9.38;68.58
68380;BME280;57711;53.196;19.638;2023-03-25T01:27:16;98891.99;;;9.38;68.34
68380;BME280;57711;53.196;19.638;2023-03-25T01:29:43;98885.19;;;9.37;68.55
68380;BME280;57711;53.196;19.638;2023-03-25T01:32:10;98886.48;;;9.37;68.64
68380;BME280;57711;53.196;19.638;2023-03-25T01:34:37;98879.42;;;9.35;68.54
68380;BME280;57711;53.196;19.638;2023-03-25T01:37:06;98885.01;;;9.34;68.69
68380;BME280;57711;53.196;19.638;2023-03-25T01:39:33;98883.61;;;9.31;68.80
68380;BME280;57711;53.196;19.638;2023-03-25T01:42:01;98880.95;;;9.29;68.64
68380;BME280;57711;53.196;19.638;2023-03-25T01:46:58;98875.19;;;9.22;68.61
68380;BME280;57711;53.196;19.638;2023-03-25T01:49:33;98869.48;;;9.20;68.74
68380;BME280;57711;53.196;19.638;2023-03-25T01:52:11;98867.65;;;9.19;68.86
68380;BME280;57711;53.196;19.638;2023-03-25T01:54:40;98866.95;;;9.19;68.50
68380;BME280;57711;53.196;19.638;2023-03-25T01:57:12;98868.07;;;9.20;68.72
68380;BME280;57711;53.196;19.638;2023-03-25T01:59:43;98869.16;;;9.20;68.66
68380;BME280;57711;53.196;19.638;2023-03-25T02:02:10;98872.15;;;9.17;68.74
68380;BME280;57711;53.196;19.638;2023-03-25T02:04:54;98866.39;;;9.15;68.70
68380;BME280;57711;53.196;19.638;2023-03-25T02:07:32;98873.27;;;9.13;68.83
68380;BME280;57711;53.196;19.638;2023-03-25T02:10:04;98872.50;;;9.11;68.84
68380;BME280;57711;53.196;19.638;2023-03-25T02:12:32;98869.77;;;9.07;68.94
68380;BME280;57711;53.196;19.638;2023-03-25T02:15:02;98869.14;;;9.03;68.82
68380;BME280;57711;53.196;19.638;2023-03-25T02:17:53;98870.31;;;9.00;68.90
68380;BME280;57711;53.196;19.638;2023-03-25T02:29:12;98856.69;;;8.99;68.74
68380;BME280;57711;53.196;19.638;2023-03-25T02:40:12;98859.39;;;8.86;68.95
68380;BME280;57711;53.196;19.638;2023-03-25T02:42:50;98863.48;;;8.81;69.00
68380;BME280;57711;53.196;19.638;2023-03-25T02:45:30;98863.65;;;8.80;68.87
68380;BME280;57711;53.196;19.638;2023-03-25T02:48:02;98865.78;;;8.80;69.12
68380;BME280;57711;53.196;19.638;2023-03-25T02:50:38;98865.04;;;8.80;68.88
68380;BME280;57711;53.196;19.638;2023-03-25T02:53:09;98860.88;;;8.82;68.86
68380;BME280;57711;53.196;19.638;2023-03-25T02:55:40;98867.35;;;8.84;69.01
68380;BME280;57711;53.196;19.638;2023-03-25T02:58:10;98868.30;;;8.85;69.11
68380;BME280;57711;53.196;19.638;2023-03-25T03:00:39;98867.52;;;8.84;68.87
68380;BME280;57711;53.196;19.638;2023-03-25T03:03:07;98867.45;;;8.83;69.04
68380;BME280;57711;53.196;19.638;2023-03-25T03:05:44;98865.59;;;8.82;69.07
68380;BME280;57711;53.196;19.638;2023-03-25T03:16:45;98866.52;;;8.73;68.87
68380;BME280;57711;53.196;19.638;2023-03-25T03:19:35;98872.88;;;8.70;68.87
68380;BME280;57711;53.196;19.638;2023-03-25T03:24:47;98868.16;;;8.65;69.20
68380;BME280;57711;53.196;19.638;2023-03-25T03:27:26;98867.55;;;8.66;69.03
68380;BME280;57711;53.196;19.638;2023-03-25T03:30:10;98874.93;;;8.68;68.99
68380;BME280;57711;53.196;19.638;2023-03-25T03:32:56;98872.17;;;8.68;69.24
68380;BME280;57711;53.196;19.638;2023-03-25T03:35:32;98872.80;;;8.67;69.17
68380;BME280;57711;53.196;19.638;2023-03-25T03:38:08;98868.97;;;8.66;69.10
68380;BME280;57711;53.196;19.638;2023-03-25T03:40:40;98864.71;;;8.64;69.10
68380;BME280;57711;53.196;19.638;2023-03-25T03:43:15;98865.61;;;8.62;69.14
68380;BME280;57711;53.196;19.638;2023-03-25T03:45:47;98864.45;;;8.61;69.08
68380;BME280;57711;53.196;19.638;2023-03-25T03:48:22;98876.07;;;8.61;69.05
68380;BME280;57711;53.196;19.638;2023-03-25T03:51:03;98873.42;;;8.60;69.14
68380;BME280;57711;53.196;19.638;2023-03-25T03:53:39;98862.74;;;8.59;69.16
68380;BME280;57711;53.196;19.638;2023-03-25T03:56:26;98857.11;;;8.59;69.32
68380;BME280;57711;53.196;19.638;2023-03-25T03:58:59;98850.81;;;8.59;69.26
68380;BME280;57711;53.196;19.638;2023-03-25T04:01:38;98838.79;;;8.58;69.26
68380;BME280;57711;53.196;19.638;2023-03-25T04:04:15;98855.05;;;8.56;69.38
68380;BME280;57711;53.196;19.638;2023-03-25T04:06:54;98851.89;;;8.52;69.36
68380;BME280;57711;53.196;19.638;2023-03-25T04:09:37;98857.26;;;8.50;69.31
68380;BME280;57711;53.196;19.638;2023-03-25T04:12:22;98849.86;;;8.49;69.15
68380;BME280;57711;53.196;19.638;2023-03-25T04:14:52;98847.75;;;8.50;69.41
68380;BME280;57711;53.196;19.638;2023-03-25T04:17:19;98847.86;;;8.53;69.48
68380;BME280;57711;53.196;19.638;2023-03-25T04:19:46;98843.30;;;8.55;69.03
68380;BME280;57711;53.196;19.638;2023-03-25T04:22:16;98843.34;;;8.56;69.09
68380;BME280;57711;53.196;19.638;2023-03-25T04:24:44;98852.74;;;8.58;69.36
68380;BME280;57711;53.196;19.638;2023-03-25T04:27:11;98855.55;;;8.59;69.24
68380;BME280;57711;53.196;19.638;2023-03-25T04:29:39;98863.45;;;8.59;69.34
68380;BME280;57711;53.196;19.638;2023-03-25T04:32:08;98856.45;;;8.57;69.39
68380;BME280;57711;53.196;19.638;2023-03-25T04:34:37;98861.54;;;8.57;69.34
68380;BME280;57711;53.196;19.638;2023-03-25T04:37:04;98864.04;;;8.55;69.35
68380;BME280;57711;53.196;19.638;2023-03-25T04:39:31;98865.54;;;8.51;69.27
68380;BME280;57711;53.196;19.638;2023-03-25T04:41:59;98868.39;;;8.49;69.31
68380;BME280;57711;53.196;19.638;2023-03-25T04:44:29;98872.13;;;8.49;69.24
68380;BME280;57711;53.196;19.638;2023-03-25T04:47:00;98876.81;;;8.50;69.25
68380;BME280;57711;53.196;19.638;2023-03-25T04:49:28;98885.95;;;8.50;69.35
68380;BME280;57711;53.196;19.638;2023-03-25T04:51:55;98888.03;;;8.51;69.48
68380;BME280;57711;53.196;19.638;2023-03-25T04:54:23;98893.73;;;8.50;69.34
68380;BME280;57711;53.196;19.638;2023-03-25T04:56:51;98891.58;;;8.44;69.21
68380;BME280;57711;53.196;19.638;2023-03-25T04:59:19;98893.02;;;8.37;69.34
68380;BME280;57711;53.196;19.638;2023-03-25T05:01:47;98894.02;;;8.32;69.27
68380;BME280;57711;53.196;19.638;2023-03-25T05:04:16;98896.61;;;8.26;69.49
68380;BME280;57711;53.196;19.638;2023-03-25T05:06:46;98895.55;;;8.24;69.60
68380;BME280;57711;53.196;19.638;2023-03-25T05:09:17;98895.55;;;8.24;69.62
68380;BME280;57711;53.196;19.638;2023-03-25T05:11:52;98894.96;;;8.23;69.66
68380;BME280;57711;53.196;19.638;2023-03-25T05:14:20;98894.60;;;8.20;69.41
68380;BME280;57711;53.196;19.638;2023-03-25T05:16:48;98891.02;;;8.19;69.68
68380;BME280;57711;53.196;19.638;2023-03-25T05:19:16;98890.73;;;8.19;69.53
68380;BME280;57711;53.196;19.638;2023-03-25T05:21:45;98894.49;;;8.15;69.47
68380;BME280;57711;53.196;19.638;2023-03-25T05:24:12;98896.79;;;8.12;69.42
68380;BME280;57711;53.196;19.638;2023-03-25T05:26:40;98894.55;;;8.08;69.68
68380;BME280;57711;53.196;19.638;2023-03-25T05:29:13;98900.04;;;8.05;69.45
68380;BME280;57711;53.196;19.638;2023-03-25T05:31:44;98902.46;;;8.01;69.51
68380;BME280;57711;53.196;19.638;2023-03-25T05:34:12;98900.92;;;8.00;69.67
68380;BME280;57711;53.196;19.638;2023-03-25T05:36:40;98907.13;;;8.03;69.78
68380;BME280;57711;53.196;19.638;2023-03-25T05:39:08;98898.88;;;8.06;69.82
68380;BME280;57711;53.196;19.638;2023-03-25T05:41:37;98898.44;;;8.10;69.90
68380;BME280;57711;53.196;19.638;2023-03-25T05:44:08;98902.84;;;8.13;69.74
68380;BME280;57711;53.196;19.638;2023-03-25T05:46:36;98907.23;;;8.14;69.79
68380;BME280;57711;53.196;19.638;2023-03-25T05:49:03;98914.22;;;8.12;69.91
68380;BME280;57711;53.196;19.638;2023-03-25T05:51:32;98914.40;;;8.11;69.80
68380;BME280;57711;53.196;19.638;2023-03-25T05:54:04;98913.98;;;8.11;69.78
68380;BME280;57711;53.196;19.638;2023-03-25T05:56:38;98912.70;;;8.13;69.87
68380;BME280;57711;53.196;19.638;2023-03-25T05:59:06;98909.51;;;8.15;69.81
68380;BME280;57711;53.196;19.638;2023-03-25T06:01:34;98907.08;;;8.19;69.97
68380;BME280;57711;53.196;19.638;2023-03-25T06:04:04;98908.58;;;8.24;69.91
68380;BME280;57711;53.196;19.638;2023-03-25T06:06:36;98914.44;;;8.28;69.97
68380;BME280;57711;53.196;19.638;2023-03-25T06:09:03;98923.45;;;8.30;70.11
68380;BME280;57711;53.196;19.638;2023-03-25T06:11:31;98924.31;;;8.32;70.05
68380;BME280;57711;53.196;19.638;2023-03-25T06:14:05;98925.92;;;8.30;70.12
68380;BME280;57711;53.196;19.638;2023-03-25T06:16:32;98929.20;;;8.30;69.83
68380;BME280;57711;53.196;19.638;2023-03-25T06:19:01;98931.31;;;8.32;70.00
68380;BME280;57711;53.196;19.638;2023-03-25T06:21:31;98932.02;;;8.36;70.06
68380;BME280;57711;53.196;19.638;2023-03-25T06:23:59;98929.01;;;8.41;70.05
68380;BME280;57711;53.196;19.638;2023-03-25T06:26:27;98928.33;;;8.44;70.00
68380;BME280;57711;53.196;19.638;2023-03-25T06:28:55;98928.65;;;8.46;70.23
68380;BME280;57711;53.196;19.638;2023-03-25T06:31:24;98927.30;;;8.49;70.08
68380;BME280;57711;53.196;19.638;2023-03-25T06:33:54;98926.27;;;8.52;70.11
68380;BME280;57711;53.196;19.638;2023-03-25T06:36:23;98924.07;;;8.53;70.31
68380;BME280;57711;53.196;19.638;2023-03-25T06:38:52;98925.23;;;8.55;70.06
68380;BME280;57711;53.196;19.638;2023-03-25T06:41:21;98926.84;;;8.59;70.26
68380;BME280;57711;53.196;19.638;2023-03-25T06:44:09;98922.35;;;8.61;70.30
68380;BME280;57711;53.196;19.638;2023-03-25T06:46:42;98925.81;;;8.64;70.26
68380;BME280;57711;53.196;19.638;2023-03-25T06:49:10;98925.67;;;8.67;70.13
68380;BME280;57711;53.196;19.638;2023-03-25T06:51:37;98928.34;;;8.71;70.31
68380;BME280;57711;53.196;19.638;2023-03-25T06:54:04;98931.30;;;8.74;70.40
68380;BME280;57711;53.196;19.638;2023-03-25T06:56:32;98932.80;;;8.73;70.35
68380;BME280;57711;53.196;19.638;2023-03-25T06:58:59;98935.02;;;8.71;70.26
68380;BME280;57711;53.196;19.638;2023-03-25T07:01:26;98933.20;;;8.71;70.21
68380;BME280;57711;53.196;19.638;2023-03-25T07:03:53;98929.56;;;8.73;70.35
68380;BME280;57711;53.196;19.638;2023-03-25T07:06:22;98930.59;;;8.79;70.46
68380;BME280;57711;53.196;19.638;2023-03-25T07:08:50;98934.23;;;8.83;70.44
68380;BME280;57711;53.196;19.638;2023-03-25T07:11:24;98935.41;;;8.88;70.21
68380;BME280;57711;53.196;19.638;2023-03-25T07:13:52;98942.41;;;8.94;70.43
68380;BME280;57711;53.196;19.638;2023-03-25T07:16:22;98946.98;;;8.95;70.37
68380;BME280;57711;53.196;19.638;2023-03-25T07:18:53;98947.50;;;8.98;70.44
68380;BME280;57711;53.196;19.638;2023-03-25T07:21:22;98944.26;;;9.02;70.66
68380;BME280;57711;53.196;19.638;2023-03-25T07:23:50;98940.52;;;9.03;70.32
68380;BME280;57711;53.196;19.638;2023-03-25T07:26:17;98943.77;;;9.06;70.45
68380;BME280;57711;53.196;19.638;2023-03-25T07:28:44;98945.60;;;9.08;70.27
68380;BME280;57711;53.196;19.638;2023-03-25T07:31:15;98943.36;;;9.10;70.41
68380;BME280;57711;53.196;19.638;2023-03-25T07:33:43;98943.32;;;9.16;70.45
68380;BME280;57711;53.196;19.638;2023-03-25T07:36:11;98943.27;;;9.20;70.57
68380;BME280;57711;53.196;19.638;2023-03-25T07:38:38;98937.77;;;9.22;70.60
68380;BME280;57711;53.196;19.638;2023-03-25T07:41:07;98938.30;;;9.26;70.58
68380;BME280;57711;53.196;19.638;2023-03-25T07:43:35;98939.16;;;9.28;70.38
68380;BME280;57711;53.196;19.638;2023-03-25T07:46:22;98941.36;;;9.33;70.47
68380;BME280;57711;53.196;19.638;2023-03-25T07:48:50;98939.10;;;9.41;70.57
68380;BME280;57711;53.196;19.638;2023-03-25T07:51:17;98931.44;;;9.48;70.61
68380;BME280;57711;53.196;19.638;2023-03-25T07:53:44;98931.58;;;9.59;70.68
68380;BME280;57711;53.196;19.638;2023-03-25T07:56:12;98927.29;;;9.69;70.61
68380;BME280;57711;53.196;19.638;2023-03-25T07:58:40;98920.85;;;9.80;70.73
68380;BME280;57711;53.196;19.638;2023-03-25T08:01:07;98920.30;;;9.94;70.54
68380;BME280;57711;53.196;19.638;2023-03-25T08:03:34;98921.27;;;10.10;70.79
68380;BME280;57711;53.196;19.638;2023-03-25T08:06:05;98920.77;;;10.21;70.64
68380;BME280;57711;53.196;19.638;2023-03-25T08:08:33;98920.34;;;10.32;70.38
68380;BME280;57711;53.196;19.638;2023-03-25T08:11:00;98915.14;;;10.35;70.56
68380;BME280;57711;53.196;19.638;2023-03-25T08:13:28;98915.66;;;10.38;70.52
68380;BME280;57711;53.196;19.638;2023-03-25T08:15:55;98907.69;;;10.37;70.46
68380;BME280;57711;53.196;19.638;2023-03-25T08:18:23;98906.23;;;10.35;70.36
68380;BME280;57711;53.196;19.638;2023-03-25T08:20:50;98904.95;;;10.35;70.44
68380;BME280;57711;53.196;19.638;2023-03-25T08:23:19;98902.74;;;10.36;70.49
68380;BME280;57711;53.196;19.638;2023-03-25T08:25:47;98900.52;;;10.38;70.45
68380;BME280;57711;53.196;19.638;2023-03-25T08:28:17;98900.58;;;10.39;70.49
68380;BME280;57711;53.196;19.638;2023-03-25T08:30:50;98903.82;;;10.41;70.44
68380;BME280;57711;53.196;19.638;2023-03-25T08:33:22;98901.33;;;10.45;70.53
68380;BME280;57711;53.196;19.638;2023-03-25T08:35:55;98899.89;;;10.50;70.58
68380;BME280;57711;53.196;19.638;2023-03-25T08:38:23;98900.88;;;10.54;70.54
68380;BME280;57711;53.196;19.638;2023-03-25T08:40:51;98896.46;;;10.58;70.64
68380;BME280;57711;53.196;19.638;2023-03-25T08:43:18;98893.82;;;10.63;70.51
68380;BME280;57711;53.196;19.638;2023-03-25T08:45:45;98895.64;;;10.66;70.51
68380;BME280;57711;53.196;19.638;2023-03-25T08:48:12;98896.63;;;10.68;70.48
68380;BME280;57711;53.196;19.638;2023-03-25T08:50:39;98896.45;;;10.70;70.54
68380;BME280;57711;53.196;19.638;2023-03-25T08:53:06;98903.20;;;10.72;70.64
68380;BME280;57711;53.196;19.638;2023-03-25T08:55:34;98901.64;;;10.73;70.59
68380;BME280;57711;53.196;19.638;2023-03-25T08:58:02;98902.14;;;10.74;70.36
68380;BME280;57711;53.196;19.638;2023-03-25T09:00:29;98896.34;;;10.74;70.62
68380;BME280;57711;53.196;19.638;2023-03-25T09:02:57;98897.52;;;10.73;70.36
68380;BME280;57711;53.196;19.638;2023-03-25T09:05:25;98901.23;;;10.72;70.52
68380;BME280;57711;53.196;19.638;2023-03-25T09:07:55;98901.70;;;10.71;70.30
68380;BME280;57711;53.196;19.638;2023-03-25T09:10:22;98904.82;;;10.69;70.30
68380;BME280;57711;53.196;19.638;2023-03-25T09:12:49;98903.52;;;10.68;70.16
68380;BME280;57711;53.196;19.638;2023-03-25T09:15:17;98904.99;;;10.68;70.30
68380;BME280;57711;53.196;19.638;2023-03-25T09:17:44;98899.06;;;10.67;70.35
68380;BME280;57711;53.196;19.638;2023-03-25T09:20:11;98897.96;;;10.68;70.51
68380;BME280;57711;53.196;19.638;2023-03-25T09:22:39;98895.00;;;10.67;70.38
68380;BME280;57711;53.196;19.638;2023-03-25T09:25:07;98895.74;;;10.66;70.30
68380;BME280;57711;53.196;19.638;2023-03-25T09:27:35;98891.79;;;10.68;70.41
68380;BME280;57711;53.196;19.638;2023-03-25T09:30:03;98889.23;;;10.70;70.45
68380;BME280;57711;53.196;19.638;2023-03-25T09:32:31;98880.05;;;10.71;70.30
68380;BME280;57711;53.196;19.638;2023-03-25T09:34:59;98876.70;;;10.73;70.26
68380;BME280;57711;53.196;19.638;2023-03-25T09:37:26;98875.27;;;10.73;70.15
68380;BME280;57711;53.196;19.638;2023-03-25T09:39:53;98874.79;;;10.74;70.29
68380;BME280;57711;53.196;19.638;2023-03-25T09:42:35;98877.45;;;10.78;70.17
68380;BME280;57711;53.196;19.638;2023-03-25T09:45:28;98882.44;;;10.82;70.12
68380;BME280;57711;53.196;19.638;2023-03-25T09:50:48;98888.52;;;10.84;70.23
68380;BME280;57711;53.196;19.638;2023-03-25T09:53:29;98887.55;;;10.85;70.05
68380;BME280;57711;53.196;19.638;2023-03-25T09:55:58;98882.30;;;10.85;70.32
68380;BME280;57711;53.196;19.638;2023-03-25T10:01:31;98872.48;;;10.88;70.21
68380;BME280;57711;53.196;19.638;2023-03-25T10:06:44;98873.86;;;10.95;70.36
68380;BME280;57711;53.196;19.638;2023-03-25T10:20:02;98873.78;;;11.00;70.20
68380;BME280;57711;53.196;19.638;2023-03-25T10:25:16;98872.66;;;10.98;70.18
68380;BME280;57711;53.196;19.638;2023-03-25T10:27:49;98874.45;;;10.98;70.19
68380;BME280;57711;53.196;19.638;2023-03-25T10:30:21;98868.14;;;11.00;70.18
68380;BME280;57711;53.196;19.638;2023-03-25T10:32:51;98862.41;;;11.04;70.29
68380;BME280;57711;53.196;19.638;2023-03-25T10:38:00;98864.16;;;11.16;70.38
68380;BME280;57711;53.196;19.638;2023-03-25T10:40:41;98861.61;;;11.17;70.24
68380;BME280;57711;53.196;19.638;2023-03-25T10:45:45;98859.13;;;11.20;70.20
68380;BME280;57711;53.196;19.638;2023-03-25T10:48:26;98858.16;;;11.22;70.02
68380;BME280;57711;53.196;19.638;2023-03-25T10:51:07;98856.91;;;11.22;70.04
68380;BME280;57711;53.196;19.638;2023-03-25T10:53:36;98860.11;;;11.21;70.26
68380;BME280;57711;53.196;19.638;2023-03-25T10:56:07;98859.10;;;11.19;69.99
68380;BME280;57711;53.196;19.638;2023-03-25T10:58:38;98855.30;;;11.15;70.00
68380;BME280;57711;53.196;19.638;2023-03-25T11:01:12;98857.17;;;11.12;69.96
68380;BME280;57711;53.196;19.638;2023-03-25T11:03:41;98859.85;;;11.08;69.99
68380;BME280;57711;53.196;19.638;2023-03-25T11:06:23;98851.98;;;11.10;70.37
68380;BME280;57711;53.196;19.638;2023-03-25T11:09:27;98847.30;;;11.18;70.33
68380;BME280;57711;53.196;19.638;2023-03-25T11:12:01;98835.84;;;11.23;70.38
68380;BME280;57711;53.196;19.638;2023-03-25T11:14:36;98832.16;;;11.28;70.14
68380;BME280;57711;53.196;19.638;2023-03-25T11:17:14;98835.81;;;11.36;70.33
68380;BME280;57711;53.196;19.638;2023-03-25T11:19:58;98833.00;;;11.41;70.43
68380;BME280;57711;53.196;19.638;2023-03-25T11:22:29;98836.92;;;11.43;70.25
68380;BME280;57711;53.196;19.638;2023-03-25T11:25:04;98828.30;;;11.40;70.26
68380;BME280;57711;53.196;19.638;2023-03-25T11:27:43;98822.11;;;11.35;69.89
68380;BME280;57711;53.196;19.638;2023-03-25T11:30:17;98816.28;;;11.31;70.00
68380;BME280;57711;53.196;19.638;2023-03-25T11:32:56;98815.38;;;11.39;70.31
68380;BME280;57711;53.196;19.638;2023-03-25T11:35:27;98812.95;;;11.53;70.55
68380;BME280;57711;53.196;19.638;2023-03-25T11:38:00;98810.31;;;11.71;70.44
68380;BME280;57711;53.196;19.638;2023-03-25T11:40:28;98810.56;;;11.86;70.30
68380;BME280;57711;53.196;19.638;2023-03-25T11:42:59;98811.86;;;11.89;70.06
68380;BME280;57711;53.196;19.638;2023-03-25T11:45:37;98803.35;;;11.93;70.05
68380;BME280;57711;53.196;19.638;2023-03-25T11:48:19;98805.25;;;11.88;69.91
68380;BME280;57711;53.196;19.638;2023-03-25T11:50:55;98801.38;;;11.80;69.77
68380;BME280;57711;53.196;19.638;2023-03-25T11:53:25;98792.77;;;11.73;69.95
68380;BME280;57711;53.196;19.638;2023-03-25T11:55:55;98791.61;;;11.69;70.03
68380;BME280;57711;53.196;19.638;2023-03-25T11:58:27;98782.73;;;11.69;69.91
68380;BME280;57711;53.196;19.638;2023-03-25T12:01:03;98776.86;;;11.74;70.00
68380;BME280;57711;53.196;19.638;2023-03-25T12:03:33;98775.31;;;11.81;70.02
68380;BME280;57711;53.196;19.638;2023-03-25T12:06:12;98772.33;;;11.91;70.07
68380;BME280;57711;53.196;19.638;2023-03-25T12:08:50;98771.61;;;11.94;69.77
68380;BME280;57711;53.196;19.638;2023-03-25T12:11:39;98769.34;;;11.94;69.86
68380;BME280;57711;53.196;19.638;2023-03-25T12:19:50;98761.47;;;11.89;69.80
68380;BME280;57711;53.196;19.638;2023-03-25T12:25:10;98762.25;;;11.84;69.88
68380;BME280;57711;53.196;19.638;2023-03-25T12:27:43;98761.10;;;11.83;69.76
68380;BME280;57711;53.196;19.638;2023-03-25T12:35:41;98751.79;;;11.81;69.51
68380;BME280;57711;53.196;19.638;2023-03-25T12:54:27;98771.23;;;10.85;69.23
68380;BME280;57711;53.196;19.638;2023-03-25T12:57:05;98767.29;;;10.79;69.31
68380;BME280;57711;53.196;19.638;2023-03-25T12:59:59;98757.17;;;10.82;69.56
68380;BME280;57711;53.196;19.638;2023-03-25T13:05:49;98756.65;;;10.91;69.81
68380;BME280;57711;53.196;19.638;2023-03-25T13:08:35;98758.61;;;10.94;69.66
68380;BME280;57711;53.196;19.638;2023-03-25T13:11:14;98750.44;;;10.93;69.62
68380;BME280;57711;53.196;19.638;2023-03-25T13:13:46;98751.70;;;10.91;69.64
68380;BME280;57711;53.196;19.638;2023-03-25T13:16:21;98747.52;;;10.91;69.74
68380;BME280;57711;53.196;19.638;2023-03-25T13:19:03;98745.48;;;10.93;69.85
68380;BME280;57711;53.196;19.638;2023-03-25T13:21:36;98743.58;;;11.04;70.10
68380;BME280;57711;53.196;19.638;2023-03-25T13:24:14;98742.63;;;11.17;70.14
68380;BME280;57711;53.196;19.638;2023-03-25T13:26:44;98737.29;;;11.32;70.19
68380;BME280;57711;53.196;19.638;2023-03-25T13:31:54;98733.08;;;11.60;69.90
68380;BME280;57711;53.196;19.638;2023-03-25T13:34:33;98732.19;;;11.69;69.78
68380;BME280;57711;53.196;19.638;2023-03-25T13:39:53;98734.65;;;11.88;69.86
68380;BME280;57711;53.196;19.638;2023-03-25T13:42:26;98730.23;;;11.95;69.91
68380;BME280;57711;53.196;19.638;2023-03-25T13:45:00;98725.48;;;11.97;69.81
68380;BME280;57711;53.196;19.638;2023-03-25T13:47:31;98724.38;;;11.97;69.68
68380;BME280;57711;53.196;19.638;2023-03-25T13:50:06;98724.17;;;11.94;69.45
68380;BME280;57711;53.196;19.638;2023-03-25T13:52:40;98726.35;;;11.91;69.57
68380;BME280;57711;53.196;19.638;2023-03-25T13:55:19;98720.98;;;11.87;69.45
68380;BME280;57711;53.196;19.638;2023-03-25T14:03:30;98713.63;;;11.76;69.51
68380;BME280;57711;53.196;19.638;2023-03-25T14:09:59;98709.42;;;11.62;69.30
68380;BME280;57711;53.196;19.638;2023-03-25T14:15:02;98700.07;;;11.54;69.08
68380;BME280;57711;53.196;19.638;2023-03-25T14:17:32;98705.49;;;11.53;69.38
68380;BME280;57711;53.196;19.638;2023-03-25T14:20:03;98706.90;;;11.49;69.13
68380;BME280;57711;53.196;19.638;2023-03-25T14:22:37;98707.45;;;11.47;69.22
68380;BME280;57711;53.196;19.638;2023-03-25T14:25:20;98715.22;;;11.46;69.35
68380;BME280;57711;53.196;19.638;2023-03-25T14:27:48;98722.67;;;11.44;69.51
68380;BME280;57711;53.196;19.638;2023-03-25T14:30:26;98724.34;;;11.42;69.27
68380;BME280;57711;53.196;19.638;2023-03-25T14:32:54;98728.19;;;11.40;69.40
68380;BME280;57711;53.196;19.638;2023-03-25T14:43:42;98727.20;;;11.27;69.12
68380;BME280;57711;53.196;19.638;2023-03-25T14:48:42;98725.02;;;11.18;69.34
68380;BME280;57711;53.196;19.638;2023-03-25T14:56:41;98726.74;;;11.06;69.08
68380;BME280;57711;53.196;19.638;2023-03-25T14:59:14;98726.13;;;11.02;69.26
68380;BME280;57711;53.196;19.638;2023-03-25T15:01:44;98727.06;;;10.97;69.14
68380;BME280;57711;53.196;19.638;2023-03-25T15:06:45;98717.68;;;10.87;69.23
68380;BME280;57711;53.196;19.638;2023-03-25T15:09:16;98722.69;;;10.83;69.27
68380;BME280;57711;53.196;19.638;2023-03-25T15:11:52;98724.64;;;10.80;69.35
68380;BME280;57711;53.196;19.638;2023-03-25T15:14:24;98735.35;;;10.76;69.36
68380;BME280;57711;53.196;19.638;2023-03-25T15:17:01;98737.87;;;10.68;69.11
68380;BME280;57711;53.196;19.638;2023-03-25T15:22:35;98742.81;;;10.49;68.96
68380;BME280;57711;53.196;19.638;2023-03-25T15:25:18;98743.27;;;10.45;69.00
68380;BME280;57711;53.196;19.638;2023-03-25T15:27:54;98740.06;;;10.47;69.06